Time;durP1;ratioP1;P1;durP2;ratioP2;P2;SDS_P1;SDS_P2;PMS_P1;PMS_P2;Temp;Humidity;BMP_temperature;BMP_pressure;BME280_temperature;BME280_humidity;BME280_pressure;Samples;Min_cycle;Max_cycle;Signal;HPM_P1;HPM_P2
2024/03/05 00:00:31;;;;;;;32.70;20.60;;;;;;;8.17;100.00;153457.19;5053317;28;20945;-83
2024/03/05 00:02:57;;;;;;;32.53;18.80;;;;;;;8.18;100.00;153461.06;5055741;28;20478;-84
2024/03/05 00:05:24;;;;;;;33.37;17.27;;;;;;;8.17;100.00;153458.50;5052817;28;20446;-84
2024/03/05 00:07:52;;;;;;;34.90;19.70;;;;;;;8.15;100.00;153452.03;5042484;28;20512;-83
2024/03/05 00:10:18;;;;;;;32.30;18.90;;;;;;;8.16;100.00;153455.91;5047944;28;20746;-84
2024/03/05 00:12:44;;;;;;;33.67;18.53;;;;;;;8.16;100.00;153455.91;5038864;28;20518;-84
2024/03/05 00:15:11;;;;;;;34.07;18.67;;;;;;;8.16;100.00;153455.91;5036938;28;20458;-84
2024/03/05 00:17:39;;;;;;;35.70;18.73;;;;;;;8.16;100.00;153455.91;5041907;28;20857;-84
2024/03/05 00:20:13;;;;;;;31.40;16.60;;;;;;;8.23;100.00;153474.03;5047375;28;20462;-84
2024/03/05 00:22:41;;;;;;;34.87;19.50;;;;;;;8.26;100.00;153480.50;5045979;28;20427;-84
2024/03/05 00:25:11;;;;;;;36.50;20.30;;;;;;;8.24;100.00;153475.28;5045915;28;20459;-85
2024/03/05 00:27:37;;;;;;;35.80;20.60;;;;;;;8.24;100.00;153476.59;5044651;28;20470;-84
2024/03/05 00:30:05;;;;;;;30.20;17.60;;;;;;;8.25;100.00;153479.19;5042111;28;20966;-84
2024/03/05 00:32:32;;;;;;;34.53;17.00;;;;;;;8.20;100.00;153464.97;5042213;28;20446;-83
2024/03/05 00:35:01;;;;;;;36.20;17.87;;;;;;;8.23;100.00;153472.72;5048654;28;20450;-84
2024/03/05 00:37:27;;;;;;;32.10;18.70;;;;;;;8.27;100.00;153484.41;5044779;28;20779;-84
2024/03/05 00:39:54;;;;;;;27.53;17.80;;;;;;;8.26;100.00;153480.50;5039542;28;20466;-85
2024/03/05 00:42:20;;;;;;;32.70;18.93;;;;;;;8.23;100.00;153474.03;5052931;28;20447;-84
2024/03/05 00:44:47;;;;;;;36.27;19.67;;;;;;;8.24;100.00;153475.28;5034643;28;20550;-84
2024/03/05 00:47:14;;;;;;;30.57;18.13;;;;;;;8.21;100.00;153468.81;5051280;28;20869;-83
2024/03/05 00:49:41;;;;;;;27.57;15.90;;;;;;;8.18;100.00;153461.06;5041445;28;20531;-83
2024/03/05 00:52:08;;;;;;;29.77;16.53;;;;;;;8.20;100.00;153464.97;5048039;28;20442;-84
2024/03/05 00:54:35;;;;;;;27.80;17.83;;;;;;;8.17;100.00;153458.50;5044761;28;20445;-84
2024/03/05 00:57:01;;;;;;;30.83;17.43;;;;;;;8.15;100.00;153452.03;5025347;28;20471;-85
2024/03/05 00:59:28;;;;;;;35.10;18.70;;;;;;;8.22;100.00;153471.44;5045980;28;20456;-85
2024/03/05 01:01:55;;;;;;;30.37;18.67;;;;;;;8.23;100.00;153472.72;5045244;28;20442;-85
2024/03/05 01:04:22;;;;;;;34.13;19.17;;;;;;;8.22;100.00;153471.44;5039202;28;22676;-85
2024/03/05 01:06:48;;;;;;;31.70;17.80;;;;;;;8.24;100.00;153476.59;5047280;28;20497;-84
2024/03/05 01:09:18;;;;;;;29.80;16.20;;;;;;;8.29;100.00;153489.56;5043128;28;20469;-84
2024/03/05 01:11:44;;;;;;;30.67;19.80;;;;;;;8.31;100.00;153493.47;5039611;28;20774;-85
2024/03/05 01:14:11;;;;;;;27.30;16.87;;;;;;;8.32;100.00;153497.31;5037764;28;20456;-85
2024/03/05 01:16:38;;;;;;;35.80;20.30;;;;;;;8.33;100.00;153498.63;5042268;28;20453;-84
2024/03/05 01:19:04;;;;;;;32.77;18.27;;;;;;;8.33;100.00;153499.91;5054426;28;20807;-84
2024/03/05 01:21:31;;;;;;;35.30;18.20;;;;;;;8.35;100.00;153505.06;5051958;28;20527;-84
2024/03/05 01:23:58;;;;;;;30.50;20.10;;;;;;;8.32;100.00;153497.31;5026303;28;20455;-84
2024/03/05 01:26:26;;;;;;;29.23;17.33;;;;;;;8.35;100.00;153505.06;5041866;28;20470;-85
2024/03/05 01:28:53;;;;;;;33.60;16.60;;;;;;;8.36;100.00;153506.38;5026107;28;20859;-84
2024/03/05 01:31:19;;;;;;;28.10;16.60;;;;;;;8.37;100.00;153508.94;5033895;28;20482;-85
2024/03/05 01:33:46;;;;;;;34.93;17.80;;;;;;;8.37;100.00;153510.22;5054482;28;20499;-84
2024/03/05 01:36:15;;;;;;;26.17;16.70;;;;;;;8.37;100.00;153508.94;5046854;28;20549;-84
2024/03/05 01:38:41;;;;;;;28.77;15.90;;;;;;;8.35;100.00;153505.06;5027147;28;20470;-85
2024/03/05 01:41:08;;;;;;;33.33;18.67;;;;;;;8.36;100.00;153507.69;5042763;28;20463;-85
2024/03/05 01:43:36;;;;;;;29.17;17.97;;;;;;;8.30;100.00;153492.16;5053089;28;20445;-84
2024/03/05 01:46:04;;;;;;;28.60;18.13;;;;;;;8.31;100.00;153493.47;5045236;28;20461;-85
2024/03/05 01:48:31;;;;;;;27.37;17.00;;;;;;;8.33;100.00;153499.91;5057004;28;20473;-83
2024/03/05 01:50:58;;;;;;;31.10;16.17;;;;;;;8.35;100.00;153505.06;5048706;28;20466;-83
2024/03/05 01:53:25;;;;;;;30.70;18.37;;;;;;;8.36;100.00;153507.69;5043431;28;20458;-84
2024/03/05 01:55:54;;;;;;;28.80;17.93;;;;;;;8.34;100.00;153502.47;5047106;28;20857;-83
2024/03/05 01:58:21;;;;;;;30.53;18.27;;;;;;;8.37;100.00;153510.22;5043869;28;20459;-84
2024/03/05 02:00:49;;;;;;;31.70;18.80;;;;;;;8.34;100.00;153502.47;5048056;28;20530;-84
2024/03/05 02:03:17;;;;;;;30.30;16.00;;;;;;;8.34;100.00;153502.47;5037206;28;20467;-83
2024/03/05 02:05:44;;;;;;;29.57;17.47;;;;;;;8.39;100.00;153515.38;5041120;28;20548;-85
2024/03/05 02:08:11;;;;;;;32.37;17.97;;;;;;;8.40;100.00;153518.00;5043781;28;21095;-83
2024/03/05 02:10:38;;;;;;;33.23;18.00;;;;;;;8.41;100.00;153519.28;5046163;28;20435;-84
2024/03/05 02:13:05;;;;;;;33.50;19.73;;;;;;;8.40;100.00;153518.00;5038150;28;20451;-84
2024/03/05 02:15:32;;;;;;;33.30;18.70;;;;;;;8.39;100.00;153514.13;5052530;28;20474;-84
2024/03/05 02:17:59;;;;;;;31.77;16.80;;;;;;;8.36;100.00;153506.38;5043917;28;20821;-84
2024/03/05 02:20:27;;;;;;;28.03;18.63;;;;;;;8.35;100.00;153503.78;5029990;28;21006;-84
2024/03/05 02:22:56;;;;;;;28.20;16.27;;;;;;;8.34;100.00;153501.22;5045436;28;20455;-84
2024/03/05 02:25:23;;;;;;;25.83;16.07;;;;;;;8.31;100.00;153494.72;5030767;28;20493;-83
2024/03/05 02:27:50;;;;;;;28.20;16.37;;;;;;;8.32;100.00;153497.31;5046864;28;20439;-84
2024/03/05 02:30:17;;;;;;;33.77;18.70;;;;;;;8.33;100.00;153498.63;5060103;28;20469;-85
2024/03/05 02:32:44;;;;;;;27.50;16.03;;;;;;;8.34;100.00;153502.47;5048583;28;20432;-84
2024/03/05 02:35:11;;;;;;;28.07;17.87;;;;;;;8.33;100.00;153498.63;5048792;28;20435;-83
2024/03/05 02:37:38;;;;;;;27.00;17.60;;;;;;;8.30;100.00;153492.16;5025922;28;20823;-85
2024/03/05 02:40:09;;;;;;;29.63;18.07;;;;;;;8.31;100.00;153493.47;5046202;28;20546;-85
2024/03/05 02:42:36;;;;;;;35.43;18.43;;;;;;;8.30;100.00;153492.16;5048055;28;20462;-84
2024/03/05 02:45:04;;;;;;;29.20;18.40;;;;;;;8.34;100.00;153502.47;5046995;28;20427;-85
2024/03/05 02:47:32;;;;;;;30.67;16.90;;;;;;;8.38;100.00;153511.53;5040962;28;20451;-85
2024/03/05 02:49:58;;;;;;;34.40;18.07;;;;;;;8.41;100.00;153520.59;5045254;28;20580;-84
2024/03/05 02:52:26;;;;;;;26.73;16.60;;;;;;;8.40;100.00;153518.00;5068309;28;20541;-85
2024/03/05 02:54:52;;;;;;;35.13;19.23;;;;;;;8.36;100.00;153507.69;5046282;28;20467;-85
2024/03/05 02:57:20;;;;;;;27.33;17.00;;;;;;;8.35;100.00;153505.06;5046904;28;20978;-85
2024/03/05 02:59:47;;;;;;;38.73;19.70;;;;;;;8.36;100.00;153507.69;5048945;28;20489;-85
2024/03/05 03:02:13;;;;;;;26.37;16.90;;;;;;;8.35;100.00;153503.78;5046705;28;20531;-85
2024/03/05 03:04:40;;;;;;;29.40;18.90;;;;;;;8.35;100.00;153503.78;5053094;28;20441;-85
2024/03/05 03:07:07;;;;;;;34.23;17.20;;;;;;;8.32;100.00;153497.31;5045243;28;20587;-85
2024/03/05 03:09:33;;;;;;;27.60;17.47;;;;;;;8.31;100.00;153493.47;5054312;28;20529;-85
2024/03/05 03:12:00;;;;;;;31.20;17.47;;;;;;;8.31;100.00;153494.72;5044919;28;20455;-85
2024/03/05 03:14:28;;;;;;;29.63;17.83;;;;;;;8.33;100.00;153499.91;5044816;28;20435;-85
2024/03/05 03:16:55;;;;;;;35.67;19.00;;;;;;;8.28;100.00;153485.69;5048885;28;20446;-85
2024/03/05 03:19:22;;;;;;;35.43;20.63;;;;;;;8.23;100.00;153474.03;5051515;28;20426;-85
2024/03/05 03:21:49;;;;;;;28.27;18.77;;;;;;;8.16;100.00;153455.91;5058365;28;20462;-85
2024/03/05 03:24:16;;;;;;;33.20;18.37;;;;;;;8.17;100.00;153457.19;5043341;28;20455;-85
2024/03/05 03:26:43;;;;;;;32.80;19.30;;;;;;;8.11;100.00;153443.00;5041744;28;20451;-85
2024/03/05 03:29:13;;;;;;;35.90;19.00;;;;;;;8.10;100.00;153440.38;5043495;28;20563;-85
2024/03/05 03:31:45;;;;;;;37.57;19.67;;;;;;;8.16;100.00;153454.59;5046262;28;20497;-85
2024/03/05 03:34:12;;;;;;;33.87;18.80;;;;;;;8.17;100.00;153458.50;5049031;28;20546;-85
2024/03/05 03:36:39;;;;;;;33.50;17.90;;;;;;;8.15;100.00;153453.34;5047243;28;20508;-85
2024/03/05 03:39:10;;;;;;;28.73;17.83;;;;;;;8.15;100.00;153452.03;5045511;28;20504;-84
2024/03/05 03:41:38;;;;;;;27.17;16.30;;;;;;;8.16;100.00;153454.59;5053290;28;20447;-85
2024/03/05 03:44:06;;;;;;;28.83;17.00;;;;;;;8.16;100.00;153454.59;5055591;28;20443;-85
2024/03/05 03:46:34;;;;;;;27.07;17.03;;;;;;;8.19;100.00;153463.66;5042644;28;20457;-85
2024/03/05 03:49:03;;;;;;;32.23;18.47;;;;;;;8.23;100.00;153472.72;5041693;28;20864;-85
2024/03/05 03:51:30;;;;;;;29.57;16.83;;;;;;;8.24;100.00;153476.59;5048453;28;20461;-85
2024/03/05 03:53:56;;;;;;;36.03;16.73;;;;;;;8.21;100.00;153468.81;5041481;28;20450;-85
2024/03/05 03:56:23;;;;;;;27.57;16.00;;;;;;;8.18;100.00;153461.06;5042984;28;20552;-86
2024/03/05 03:58:49;;;;;;;28.20;16.03;;;;;;;8.16;100.00;153455.91;5042466;28;20459;-85
2024/03/05 04:01:16;;;;;;;27.60;15.83;;;;;;;8.14;100.00;153450.75;5051835;28;20865;-85
2024/03/05 04:03:42;;;;;;;27.27;16.57;;;;;;;8.11;100.00;153443.00;5053081;28;20521;-84
2024/03/05 04:06:11;;;;;;;28.83;17.47;;;;;;;8.14;100.00;153450.75;5046752;28;20442;-83
2024/03/05 04:08:38;;;;;;;29.17;17.33;;;;;;;8.15;100.00;153452.03;5042820;28;20458;-85
2024/03/05 04:11:06;;;;;;;28.67;17.70;;;;;;;8.14;100.00;153449.44;5041076;28;20804;-85
2024/03/05 04:13:33;;;;;;;28.90;16.50;;;;;;;8.15;100.00;153452.03;5022456;28;20440;-86
2024/03/05 04:15:59;;;;;;;33.87;18.47;;;;;;;8.16;100.00;153454.59;5044851;28;20528;-84
2024/03/05 04:18:26;;;;;;;27.97;16.17;;;;;;;8.14;100.00;153450.75;5031058;28;20467;-85
2024/03/05 04:20:53;;;;;;;30.07;17.43;;;;;;;8.11;100.00;153443.00;5051592;28;20497;-84
2024/03/05 04:23:21;;;;;;;31.97;16.80;;;;;;;8.10;100.00;153440.38;5027891;28;20446;-85
2024/03/05 04:25:50;;;;;;;29.50;18.60;;;;;;;8.09;100.00;153437.81;5035329;28;20466;-84
2024/03/05 04:28:16;;;;;;;37.73;20.93;;;;;;;8.08;100.00;153435.22;5059335;28;21048;-84
2024/03/05 04:30:46;;;;;;;32.30;17.53;;;;;;;8.07;100.00;153431.38;5042051;28;20986;-85
2024/03/05 04:33:15;;;;;;;33.17;19.27;;;;;;;8.07;100.00;153432.66;5032035;28;20423;-85
2024/03/05 04:35:42;;;;;;;29.10;18.10;;;;;;;8.10;100.00;153440.38;5047549;28;20536;-85
2024/03/05 04:38:09;;;;;;;31.60;18.43;;;;;;;8.06;100.00;153430.06;5050830;28;20500;-85
2024/03/05 04:40:37;;;;;;;38.23;19.67;;;;;;;8.05;100.00;153427.47;5041607;28;20613;-84
2024/03/05 04:43:05;;;;;;;33.70;20.03;;;;;;;8.05;100.00;153427.47;5048113;28;20439;-81
2024/03/05 04:45:33;;;;;;;38.03;18.30;;;;;;;8.07;100.00;153432.66;5022619;28;20469;-85
2024/03/05 04:47:59;;;;;;;33.00;18.63;;;;;;;8.08;100.00;153435.22;5050059;28;20434;-85
2024/03/05 04:50:26;;;;;;;31.00;17.70;;;;;;;8.07;100.00;153431.38;5039533;28;20487;-85
2024/03/05 04:52:53;;;;;;;32.03;18.33;;;;;;;8.06;100.00;153430.06;5047869;28;20443;-85
2024/03/05 04:55:19;;;;;;;34.03;17.90;;;;;;;8.08;100.00;153435.22;5048796;28;20562;-85
2024/03/05 04:57:48;;;;;;;29.90;17.80;;;;;;;8.08;100.00;153435.22;5022031;28;20866;-85
2024/03/05 05:00:23;;;;;;;32.30;19.37;;;;;;;8.08;100.00;153433.94;5043470;28;20537;-84
2024/03/05 05:02:51;;;;;;;35.80;20.77;;;;;;;8.07;100.00;153432.66;5052538;28;20820;-84
2024/03/05 05:05:17;;;;;;;41.20;19.40;;;;;;;8.08;100.00;153435.22;5028272;28;20451;-84
2024/03/05 05:07:44;;;;;;;34.00;20.20;;;;;;;8.07;100.00;153432.66;5038755;28;20493;-84
2024/03/05 05:10:11;;;;;;;49.60;24.30;;;;;;;8.09;100.00;153437.81;5045776;28;20477;-84
2024/03/05 05:12:39;;;;;;;34.70;21.03;;;;;;;8.09;100.00;153437.81;5054495;28;21087;-84
2024/03/05 05:15:07;;;;;;;29.90;18.47;;;;;;;8.10;100.00;153440.38;5048918;28;20467;-83
2024/03/05 05:17:34;;;;;;;35.00;20.40;;;;;;;8.09;100.00;153437.81;5041562;28;20871;-84
2024/03/05 05:20:00;;;;;;;41.43;21.50;;;;;;;8.10;100.00;153440.38;5047475;28;20438;-85
2024/03/05 05:22:27;;;;;;;38.17;21.57;;;;;;;8.11;100.00;153443.00;5042707;28;20451;-84
2024/03/05 05:24:53;;;;;;;37.97;21.70;;;;;;;8.12;100.00;153445.59;5044856;28;20467;-85
2024/03/05 05:27:21;;;;;;;36.20;22.50;;;;;;;8.11;100.00;153443.00;5024975;28;20463;-84
2024/03/05 05:29:48;;;;;;;35.20;20.63;;;;;;;8.15;100.00;153453.34;5047361;28;20567;-85
2024/03/05 05:32:16;;;;;;;42.37;22.20;;;;;;;8.13;100.00;153446.88;5050171;28;20566;-84
2024/03/05 05:34:43;;;;;;;37.20;22.33;;;;;;;8.12;100.00;153445.59;5048660;28;20430;-84
2024/03/05 05:37:09;;;;;;;37.33;21.97;;;;;;;8.13;100.00;153446.88;5046956;28;20450;-83
2024/03/05 05:39:37;;;;;;;39.50;22.10;;;;;;;8.08;100.00;153435.22;5047033;28;20500;-84
2024/03/05 05:42:04;;;;;;;39.80;22.33;;;;;;;8.08;100.00;153435.22;5039147;28;20463;-84
2024/03/05 05:44:31;;;;;;;35.87;21.43;;;;;;;8.07;100.00;153432.66;5049806;28;20446;-83
2024/03/05 05:46:57;;;;;;;33.63;19.20;;;;;;;8.08;100.00;153433.94;5054469;28;20969;-84
2024/03/05 05:49:25;;;;;;;34.87;20.00;;;;;;;8.10;100.00;153439.13;5049296;28;20473;-83
2024/03/05 05:51:52;;;;;;;33.07;20.83;;;;;;;8.10;100.00;153439.13;5047261;28;20981;-83
2024/03/05 05:54:19;;;;;;;33.80;20.30;;;;;;;8.09;100.00;153437.81;5049392;28;20550;-84
2024/03/05 05:56:46;;;;;;;44.50;22.77;;;;;;;8.10;100.00;153439.13;5048052;28;20471;-85
2024/03/05 05:59:12;;;;;;;37.00;19.90;;;;;;;8.08;100.00;153435.22;5048492;28;20558;-84
2024/03/05 06:01:40;;;;;;;35.57;21.37;;;;;;;8.09;100.00;153437.81;5048003;28;20470;-83
2024/03/05 06:04:07;;;;;;;36.97;21.80;;;;;;;8.12;100.00;153445.59;5043865;28;20443;-83
2024/03/05 06:06:36;;;;;;;44.40;21.47;;;;;;;8.10;100.00;153440.38;5054209;28;20476;-83
2024/03/05 06:09:08;;;;;;;43.77;22.13;;;;;;;8.06;100.00;153430.06;5040817;28;21033;-84
2024/03/05 06:11:34;;;;;;;40.50;21.97;;;;;;;8.09;100.00;153436.53;5055076;28;20457;-83
2024/03/05 06:14:01;;;;;;;34.13;20.00;;;;;;;8.09;100.00;153437.81;5055313;28;20447;-83
2024/03/05 06:16:29;;;;;;;39.17;21.33;;;;;;;8.09;100.00;153437.81;5040374;28;20466;-85
2024/03/05 06:18:56;;;;;;;39.37;20.93;;;;;;;8.10;100.00;153440.38;5053677;28;20451;-84
2024/03/05 06:21:22;;;;;;;34.40;19.70;;;;;;;8.10;100.00;153440.38;5043724;28;20556;-83
2024/03/05 06:23:50;;;;;;;29.07;18.57;;;;;;;8.09;100.00;153437.81;5042556;28;20455;-83
2024/03/05 06:26:17;;;;;;;35.67;19.93;;;;;;;8.10;100.00;153439.13;5039725;28;20465;-83
2024/03/05 06:28:43;;;;;;;38.00;19.87;;;;;;;8.11;100.00;153443.00;5039873;28;20949;-83
2024/03/05 06:31:11;;;;;;;37.90;21.63;;;;;;;8.10;100.00;153439.13;5034781;28;20556;-84
2024/03/05 06:33:37;;;;;;;35.67;21.20;;;;;;;8.09;100.00;153437.81;5038733;28;20451;-83
2024/03/05 06:36:07;;;;;;;42.43;21.63;;;;;;;8.11;100.00;153443.00;5037327;28;20450;-83
2024/03/05 06:38:33;;;;;;;39.43;21.47;;;;;;;8.14;100.00;153450.75;5038400;28;20817;-83
2024/03/05 06:41:01;;;;;;;33.67;19.47;;;;;;;8.14;100.00;153450.75;5041265;28;20801;-83
2024/03/05 06:43:33;;;;;;;39.60;20.00;;;;;;;8.16;100.00;153454.59;5054571;28;20467;-83
2024/03/05 06:46:01;;;;;;;37.53;21.77;;;;;;;8.15;100.00;153453.34;5035778;28;20600;-83
2024/03/05 06:48:30;;;;;;;41.07;23.90;;;;;;;8.14;100.00;153450.75;5040993;28;20436;-83
2024/03/05 06:51:00;;;;;;;36.30;21.90;;;;;;;8.15;100.00;153453.34;5040008;28;20510;-83
2024/03/05 06:58:58;;;;;;;40.03;21.07;;;;;;;8.17;100.00;153458.50;5051760;28;20922;-84
2024/03/05 07:01:27;;;;;;;40.00;21.63;;;;;;;8.14;100.00;153449.44;5038995;28;20462;-84
2024/03/05 07:03:54;;;;;;;38.57;21.30;;;;;;;8.15;100.00;153453.34;5040126;28;20456;-84
2024/03/05 07:06:23;;;;;;;35.83;20.87;;;;;;;8.13;100.00;153448.13;5039656;28;20451;-83
2024/03/05 07:08:51;;;;;;;38.83;22.60;;;;;;;8.14;100.00;153450.75;5035691;28;20455;-83
2024/03/05 07:11:19;;;;;;;36.13;21.90;;;;;;;8.16;100.00;153455.91;5035647;28;20490;-83
2024/03/05 07:13:48;;;;;;;36.60;20.70;;;;;;;8.18;100.00;153459.81;5040946;28;20564;-83
2024/03/05 07:16:15;;;;;;;37.80;21.23;;;;;;;8.19;100.00;153462.38;5037916;28;20464;-83
2024/03/05 07:18:42;;;;;;;33.83;19.77;;;;;;;8.21;100.00;153468.81;5039083;28;20821;-83
2024/03/05 07:21:09;;;;;;;43.77;21.07;;;;;;;8.22;100.00;153471.44;5038059;28;20451;-83
2024/03/05 07:23:36;;;;;;;41.23;21.43;;;;;;;8.22;100.00;153471.44;5038182;28;20483;-83
2024/03/05 07:26:03;;;;;;;35.60;19.03;;;;;;;8.23;100.00;153472.72;5040850;28;20463;-84
2024/03/05 07:28:31;;;;;;;39.57;21.93;;;;;;;8.25;100.00;153479.19;5036300;28;20459;-83
2024/03/05 07:30:59;;;;;;;35.50;21.70;;;;;;;8.24;100.00;153476.59;5034899;28;20498;-83
2024/03/05 07:33:26;;;;;;;38.17;19.53;;;;;;;8.25;100.00;153477.88;5040408;28;20482;-81
2024/03/05 07:35:53;;;;;;;40.00;22.40;;;;;;;8.22;100.00;153470.13;5054822;28;21013;-81
2024/03/05 07:38:21;;;;;;;38.13;20.90;;;;;;;8.23;100.00;153474.03;5041942;28;21057;-81
2024/03/05 07:40:47;;;;;;;37.47;20.60;;;;;;;8.27;100.00;153483.09;5039668;28;20446;-82
2024/03/05 07:43:14;;;;;;;37.60;21.00;;;;;;;8.27;100.00;153483.09;5040395;28;20494;-81
2024/03/05 07:45:42;;;;;;;41.97;23.37;;;;;;;8.22;100.00;153470.13;5040006;28;20469;-82
2024/03/05 07:48:10;;;;;;;34.00;20.27;;;;;;;8.23;100.00;153474.03;5038000;28;20459;-81
2024/03/05 07:50:37;;;;;;;40.00;21.97;;;;;;;8.20;100.00;153464.97;5037908;28;20485;-87
2024/03/05 07:53:03;;;;;;;41.00;20.30;;;;;;;8.21;100.00;153468.81;5026455;28;20491;-81
2024/03/05 07:55:37;;;;;;;43.30;22.00;;;;;;;8.23;100.00;153474.03;5037578;28;20470;-80
2024/03/05 07:58:03;;;;;;;42.45;26.23;;;;;;;8.20;100.00;153464.97;5036557;28;20437;-81
2024/03/05 08:00:30;;;;;;;41.27;20.50;;;;;;;8.21;100.00;153468.81;5036731;28;20229;-82
2024/03/05 08:02:58;;;;;;;39.60;22.67;;;;;;;8.24;100.00;153476.59;5037081;28;20549;-83
2024/03/05 08:05:25;;;;;;;37.50;20.80;;;;;;;8.26;100.00;153481.75;5034687;28;20468;-83
2024/03/05 08:07:53;;;;;;;41.80;21.80;;;;;;;8.28;100.00;153485.69;5037498;28;20501;-83
2024/03/05 08:10:19;;;;;;;38.27;21.00;;;;;;;8.29;100.00;153488.25;5037428;28;20474;-83
2024/03/05 08:12:50;;;;;;;40.10;22.40;;;;;;;8.27;100.00;153484.41;5035013;28;20984;-83
2024/03/05 08:15:17;;;;;;;35.27;19.83;;;;;;;8.29;100.00;153489.56;5035178;28;20485;-83
2024/03/05 08:17:46;;;;;;;37.93;22.70;;;;;;;8.30;100.00;153490.84;5051098;28;20477;-83
2024/03/05 08:20:14;;;;;;;39.53;23.13;;;;;;;8.30;100.00;153492.16;5037979;28;20452;-83
2024/03/05 08:22:41;;;;;;;37.23;20.60;;;;;;;8.32;100.00;153497.31;5037073;28;20446;-83
2024/03/05 08:25:10;;;;;;;37.97;21.40;;;;;;;8.34;100.00;153502.47;5035637;28;20516;-83
2024/03/05 08:27:38;;;;;;;43.13;21.97;;;;;;;8.37;100.00;153508.94;5050577;28;20479;-84
2024/03/05 08:30:08;;;;;;;38.23;21.70;;;;;;;8.39;100.00;153515.38;5037388;28;20471;-84
2024/03/05 08:32:35;;;;;;;41.47;21.87;;;;;;;8.41;100.00;153520.59;5035695;28;20537;-84
2024/03/05 08:35:01;;;;;;;36.70;20.40;;;;;;;8.41;100.00;153520.59;5036848;28;20969;-84
2024/03/05 08:37:29;;;;;;;37.40;20.70;;;;;;;8.42;100.00;153521.84;5035180;28;20566;-84
2024/03/05 08:39:56;;;;;;;30.90;21.20;;;;;;;8.41;100.00;153519.28;5051414;28;20459;-84
2024/03/05 08:42:22;;;;;;;30.93;17.97;;;;;;;8.40;100.00;153518.00;5050277;28;20456;-84
2024/03/05 08:44:49;;;;;;;39.23;22.30;;;;;;;8.42;100.00;153521.84;5035549;28;20481;-84
2024/03/05 08:47:15;;;;;;;34.73;19.77;;;;;;;8.41;100.00;153520.59;5035175;28;20494;-83
2024/03/05 08:49:42;;;;;;;37.50;20.87;;;;;;;8.41;100.00;153520.59;5036041;28;20463;-83
2024/03/05 08:52:08;;;;;;;36.50;20.97;;;;;;;8.42;100.00;153523.16;5034979;28;20483;-84
2024/03/05 08:54:36;;;;;;;37.80;21.40;;;;;;;8.44;100.00;153528.34;5037625;28;20456;-83
2024/03/05 08:57:04;;;;;;;32.40;19.63;;;;;;;8.43;100.00;153525.75;5039332;28;20466;-84
2024/03/05 08:59:31;;;;;;;35.27;20.20;;;;;;;8.43;100.00;153525.75;5035233;28;20455;-83
2024/03/05 09:01:58;;;;;;;35.63;19.10;;;;;;;8.44;100.00;153528.34;5036021;28;20459;-83
2024/03/05 09:04:27;;;;;;;32.83;18.77;;;;;;;8.45;100.00;153530.91;5035422;28;20451;-83
2024/03/05 09:06:53;;;;;;;31.87;16.10;;;;;;;8.48;100.00;153538.69;5034275;28;20509;-83
2024/03/05 09:09:20;;;;;;;32.70;18.97;;;;;;;8.52;100.00;153547.75;5035196;28;20459;-84
2024/03/05 09:11:48;;;;;;;32.77;20.60;;;;;;;8.53;100.00;153551.59;5033378;28;20803;-84
2024/03/05 09:14:15;;;;;;;31.13;18.43;;;;;;;8.55;100.00;153556.75;5016708;28;20459;-84
2024/03/05 09:16:41;;;;;;;30.50;18.63;;;;;;;8.57;100.00;153560.66;5034831;28;20559;-84
2024/03/05 09:19:10;;;;;;;35.33;19.90;;;;;;;8.59;100.00;153565.81;5035366;28;20537;-84
2024/03/05 09:21:36;;;;;;;32.70;18.30;;;;;;;8.60;100.00;153568.44;5040693;28;20483;-83
2024/03/05 09:24:06;;;;;;;31.43;18.27;;;;;;;8.61;100.00;153569.69;5038975;28;20454;-83
2024/03/05 09:26:33;;;;;;;30.83;17.47;;;;;;;8.62;100.00;153573.59;5039242;28;20509;-84
2024/03/05 09:29:01;;;;;;;28.33;17.60;;;;;;;8.64;100.00;153577.44;5039395;28;20451;-83
2024/03/05 09:31:27;;;;;;;23.47;15.60;;;;;;;8.60;100.00;153567.13;5038908;28;20885;-84
2024/03/05 09:33:55;;;;;;;19.43;12.10;;;;;;;8.52;100.00;153549.00;5056016;28;20785;-83
2024/03/05 09:36:23;;;;;;;18.37;12.00;;;;;;;8.44;100.00;153528.34;5054784;28;20504;-82
2024/03/05 09:38:49;;;;;;;16.40;10.30;;;;;;;8.41;100.00;153520.59;5038387;28;21021;-82
2024/03/05 09:41:17;;;;;;;14.73;9.33;;;;;;;8.38;100.00;153511.53;5038961;28;20458;-82
2024/03/05 09:43:45;;;;;;;11.20;8.20;;;;;;;8.36;100.00;153506.38;5035138;28;20448;-82
2024/03/05 09:46:14;;;;;;;8.40;5.83;;;;;;;8.29;100.00;153488.25;5040683;28;20481;-82
2024/03/05 09:48:41;;;;;;;9.13;5.97;;;;;;;8.31;100.00;153494.72;5040336;28;20541;-81
2024/03/05 09:51:08;;;;;;;13.13;7.47;;;;;;;8.26;100.00;153480.50;5038523;28;20510;-82
2024/03/05 09:53:35;;;;;;;11.70;7.00;;;;;;;8.25;100.00;153479.19;5045406;28;20473;-82
2024/03/05 09:56:02;;;;;;;11.27;7.10;;;;;;;8.26;100.00;153480.50;5041833;28;20544;-82
2024/03/05 09:58:37;;;;;;;10.40;6.70;;;;;;;8.26;100.00;153481.75;5045561;28;20455;-82
2024/03/05 10:01:05;;;;;;;8.57;5.80;;;;;;;8.26;100.00;153481.75;5046320;28;20458;-82
2024/03/05 10:03:34;;;;;;;10.87;6.30;;;;;;;8.28;100.00;153487.00;5053308;28;20459;-82
2024/03/05 10:06:01;;;;;;;9.10;5.90;;;;;;;8.25;100.00;153479.19;5039295;28;20463;-82
2024/03/05 10:08:28;;;;;;;10.23;6.13;;;;;;;8.29;100.00;153488.25;5037441;28;20478;-82
2024/03/05 10:11:00;;;;;;;8.60;5.57;;;;;;;8.28;100.00;153487.00;5038945;28;20482;-82
2024/03/05 10:13:30;;;;;;;10.60;8.30;;;;;;;8.25;100.00;153477.88;5037578;28;20499;-82
2024/03/05 10:16:13;;;;;;;7.83;6.07;;;;;;;8.27;100.00;153484.41;5051918;28;20487;-82
2024/03/05 10:18:41;;;;;;;9.60;5.27;;;;;;;8.22;100.00;153471.44;5037507;28;20478;-82
2024/03/05 10:21:19;;;;;;;6.43;4.93;;;;;;;8.21;100.00;153467.50;5019423;28;20460;-82
2024/03/05 10:23:47;;;;;;;7.53;5.30;;;;;;;8.22;100.00;153470.13;5019757;28;20482;-82
2024/03/05 10:26:21;;;;;;;8.20;5.30;;;;;;;8.18;100.00;153459.81;5052890;28;20550;-82
2024/03/05 10:28:51;;;;;;;7.50;5.47;;;;;;;8.22;100.00;153471.44;5051746;28;20460;-82
2024/03/05 10:31:23;;;;;;;8.37;5.70;;;;;;;8.22;100.00;153470.13;5038581;28;20475;-82
2024/03/05 10:33:54;;;;;;;8.77;5.23;;;;;;;8.28;100.00;153487.00;5039597;28;20888;-83
2024/03/05 10:36:24;;;;;;;8.33;5.30;;;;;;;8.35;100.00;153505.06;5037558;28;20550;-82
2024/03/05 10:38:51;;;;;;;6.70;4.77;;;;;;;8.38;100.00;153511.53;5038142;28;21127;-82
2024/03/05 10:41:21;;;;;;;6.90;5.13;;;;;;;8.37;100.00;153510.22;5052809;28;20460;-83
2024/03/05 10:43:50;;;;;;;8.13;5.23;;;;;;;8.37;100.00;153510.22;5038083;28;20463;-82
2024/03/05 10:46:17;;;;;;;8.30;5.10;;;;;;;8.42;100.00;153523.16;5038236;28;20544;-83
2024/03/05 10:48:44;;;;;;;8.50;4.97;;;;;;;8.46;100.00;153532.22;5037732;28;20808;-83
2024/03/05 10:51:13;;;;;;;4.43;3.57;;;;;;;8.46;100.00;153533.53;5037916;28;20532;-82
2024/03/05 10:53:40;;;;;;;6.20;4.63;;;;;;;8.50;100.00;153543.84;5037345;28;20473;-83
2024/03/05 10:56:07;;;;;;;6.03;3.60;;;;;;;8.54;100.00;153554.19;5036571;28;20458;-83
2024/03/05 10:59:11;;;;;;;6.73;4.90;;;;;;;8.61;100.00;153569.69;5038506;28;20497;-83
2024/03/05 11:01:31;;;;;;;5.33;4.13;;;;;;;8.63;100.00;153574.88;5038254;28;20470;-83
2024/03/05 11:04:00;;;;;;;4.87;4.03;;;;;;;8.69;100.00;153591.66;5037294;28;20972;-82
2024/03/05 11:06:28;;;;;;;6.40;4.53;;;;;;;8.70;100.00;153594.28;5037295;28;20521;-83
2024/03/05 11:08:55;;;;;;;6.10;4.37;;;;;;;8.67;100.00;153585.22;5038019;28;20473;-83
2024/03/05 11:11:24;;;;;;;7.30;4.27;;;;;;;8.66;100.00;153582.66;5020249;28;20819;-83
2024/03/05 11:13:52;;;;;;;5.87;4.37;;;;;;;8.69;100.00;153590.38;5051925;28;20455;-83
2024/03/05 11:16:20;;;;;;;5.87;3.93;;;;;;;8.73;100.00;153600.72;5037070;28;20451;-83
2024/03/05 11:18:47;;;;;;;5.40;3.77;;;;;;;8.77;100.00;153612.34;5035490;28;20541;-83